createdAt,value
2016-10-16T00:00:11.091Z,0
2016-10-16T00:01:24.192Z,0
2016-10-16T00:02:37.100Z,0
2016-10-16T00:03:50.079Z,0
2016-10-16T00:05:03.068Z,0
2016-10-16T00:06:16.712Z,0
2016-10-16T00:07:29.755Z,0
2016-10-16T00:08:42.677Z,0
2016-10-16T00:09:56.166Z,0
2016-10-16T00:11:07.527Z,0
2016-10-16T00:12:21.017Z,0
2016-10-16T00:13:33.937Z,0
2016-10-16T00:14:46.344Z,0
2016-10-16T00:15:59.808Z,0
2016-10-16T00:17:12.192Z,0
2016-10-16T00:18:23.644Z,0
2016-10-16T00:19:36.590Z,0
2016-10-16T00:20:50.132Z,0
2016-10-16T00:22:03.588Z,0
2016-10-16T00:23:16.582Z,0
2016-10-16T00:24:30.066Z,0
2016-10-16T00:25:43.125Z,0
2016-10-16T00:26:56.072Z,0
2016-10-16T00:28:08.498Z,0
2016-10-16T00:29:21.066Z,0
2016-10-16T00:30:33.542Z,0
2016-10-16T00:31:46.518Z,0
2016-10-16T00:32:59.499Z,0
2016-10-16T00:34:12.990Z,0
2016-10-16T00:35:26.029Z,0
2016-10-16T00:36:39.522Z,0
2016-10-16T00:37:52.492Z,0
2016-10-16T00:39:04.867Z,0
2016-10-16T00:40:17.400Z,0
2016-10-16T00:41:30.611Z,0
2016-10-16T00:42:44.079Z,0
2016-10-16T00:43:57.536Z,0
2016-10-16T00:46:54.973Z,0
2016-10-16T00:48:06.818Z,0
2016-10-16T00:49:19.757Z,0
2016-10-16T00:50:32.876Z,0
2016-10-16T00:51:46.297Z,0
2016-10-16T00:52:59.756Z,0
2016-10-16T00:54:12.159Z,0
2016-10-16T00:55:24.481Z,0
2016-10-16T00:56:37.861Z,0
2016-10-16T00:57:50.330Z,0
2016-10-16T00:59:03.745Z,0
2016-10-16T01:00:17.147Z,0
2016-10-16T01:01:30.700Z,0
2016-10-16T01:02:43.624Z,0
2016-10-16T01:03:56.005Z,0
2016-10-16T01:05:08.899Z,0
2016-10-16T01:06:21.828Z,0
2016-10-16T01:07:34.248Z,0
2016-10-16T01:08:47.781Z,0
2016-10-16T01:10:00.710Z,0
2016-10-16T01:11:12.538Z,0
2016-10-16T01:12:26.152Z,0
2016-10-16T01:13:38.548Z,0
2016-10-16T01:14:52.031Z,0
2016-10-16T01:16:04.451Z,0
2016-10-16T01:17:16.348Z,0
2016-10-16T01:18:28.724Z,0
2016-10-16T01:19:42.159Z,0
2016-10-16T01:20:54.655Z,0
2016-10-16T01:22:07.606Z,0
2016-10-16T01:23:20.145Z,0
2016-10-16T01:24:33.567Z,0
2016-10-16T01:25:45.932Z,0
2016-10-16T01:26:58.862Z,0
2016-10-16T01:28:11.297Z,0
2016-10-16T01:29:24.341Z,0
2016-10-16T01:30:37.296Z,0
2016-10-16T01:31:49.796Z,0
2016-10-16T01:33:02.783Z,0
2016-10-16T01:34:15.312Z,0
2016-10-16T01:35:28.788Z,0
2016-10-16T01:36:42.309Z,0
2016-10-16T01:37:54.768Z,0
2016-10-16T01:39:06.683Z,0
2016-10-16T01:40:19.673Z,0
2016-10-16T01:41:33.348Z,0
2016-10-16T01:42:46.796Z,0
2016-10-16T01:43:59.927Z,0
2016-10-16T01:45:13.593Z,0
2016-10-16T01:46:27.105Z,0
2016-10-16T01:47:40.574Z,0
2016-10-16T01:48:54.006Z,0
2016-10-16T01:50:06.367Z,0
2016-10-16T01:51:19.847Z,0
2016-10-16T01:52:33.299Z,0
2016-10-16T01:53:46.255Z,0
2016-10-16T01:54:59.181Z,0
2016-10-16T01:56:11.702Z,0
2016-10-16T01:57:24.855Z,0
2016-10-16T01:58:36.743Z,0
2016-10-16T01:59:49.745Z,0
2016-10-16T02:01:02.306Z,0
2016-10-16T02:02:15.709Z,0
2016-10-16T02:03:28.635Z,0
2016-10-16T02:04:41.668Z,0
2016-10-16T02:05:54.607Z,0
2016-10-16T02:07:08.211Z,0
2016-10-16T02:08:20.706Z,0
2016-10-16T02:09:34.159Z,0
2016-10-16T02:10:46.065Z,0
2016-10-16T02:11:58.498Z,0
2016-10-16T02:13:11.945Z,0
2016-10-16T02:14:25.544Z,0
2016-10-16T02:15:38.577Z,0
2016-10-16T02:16:51.638Z,0
2016-10-16T02:18:04.728Z,0
2016-10-16T02:19:18.207Z,0
2016-10-16T02:20:30.972Z,0
2016-10-16T02:21:44.526Z,0
2016-10-16T02:22:57.977Z,0
2016-10-16T02:24:10.974Z,0
2016-10-16T02:25:23.996Z,0
2016-10-16T02:26:37.007Z,0
2016-10-16T02:27:50.454Z,0
2016-10-16T02:29:04.024Z,0
2016-10-16T02:30:16.999Z,0
2016-10-16T02:31:30.552Z,0
2016-10-16T02:32:43.035Z,0
2016-10-16T02:33:56.310Z,0
2016-10-16T02:35:09.327Z,0
2016-10-16T02:36:21.827Z,0
2016-10-16T02:37:34.845Z,0
2016-10-16T02:38:48.389Z,0
2016-10-16T02:40:02.021Z,0
2016-10-16T02:41:14.950Z,0
2016-10-16T02:42:28.441Z,0
2016-10-16T02:43:40.868Z,0
2016-10-16T02:44:54.444Z,0
2016-10-16T02:46:07.924Z,0
2016-10-16T02:47:20.345Z,0
2016-10-16T02:48:33.303Z,0
2016-10-16T02:49:46.768Z,0
2016-10-16T02:50:59.852Z,0
2016-10-16T02:52:12.836Z,0
2016-10-16T02:53:25.288Z,0
2016-10-16T02:54:37.666Z,0
2016-10-16T02:55:51.171Z,0
2016-10-16T02:57:04.610Z,0
2016-10-16T02:58:18.090Z,0
2016-10-16T02:59:31.592Z,0
2016-10-16T03:00:44.575Z,0
2016-10-16T03:01:57.197Z,0
2016-10-16T03:03:10.192Z,0
2016-10-16T03:04:23.107Z,0
2016-10-16T03:05:36.592Z,0
2016-10-16T03:06:49.663Z,0
2016-10-16T03:08:02.857Z,0
2016-10-16T03:09:15.300Z,0
2016-10-16T03:10:28.230Z,0
2016-10-16T03:11:41.213Z,0
2016-10-16T03:12:54.811Z,0
2016-10-16T03:14:08.335Z,0
2016-10-16T03:15:20.790Z,0
2016-10-16T03:16:33.832Z,0
2016-10-16T03:17:46.427Z,0
2016-10-16T03:18:59.475Z,0
2016-10-16T03:20:13.032Z,0
2016-10-16T03:21:25.431Z,0
2016-10-16T03:22:38.983Z,0
2016-10-16T03:23:52.039Z,0
2016-10-16T03:25:04.935Z,0
2016-10-16T03:26:17.944Z,0
2016-10-16T03:27:30.910Z,0
2016-10-16T03:28:43.479Z,0
2016-10-16T03:29:56.453Z,0
2016-10-16T03:31:09.909Z,0
2016-10-16T03:32:21.852Z,0
2016-10-16T03:33:34.323Z,0
2016-10-16T03:34:48.011Z,0
2016-10-16T03:36:00.946Z,0
2016-10-16T03:37:13.894Z,0
2016-10-16T03:38:26.869Z,0
2016-10-16T03:39:39.525Z,0
2016-10-16T03:40:53.028Z,0
2016-10-16T03:42:04.920Z,0
2016-10-16T03:43:17.295Z,0
2016-10-16T03:44:30.807Z,0
2016-10-16T03:45:44.052Z,0
2016-10-16T03:46:56.615Z,0
2016-10-16T03:48:09.011Z,0
2016-10-16T03:49:21.416Z,0
2016-10-16T03:50:33.395Z,0
2016-10-16T03:51:45.848Z,0
2016-10-16T03:52:58.850Z,0
2016-10-16T03:54:11.762Z,0
2016-10-16T03:55:25.290Z,0
2016-10-16T03:56:38.850Z,0
2016-10-16T03:57:51.268Z,0
2016-10-16T03:59:04.247Z,0
2016-10-16T04:00:17.154Z,0
2016-10-16T04:01:30.297Z,0
2016-10-16T04:02:43.909Z,0
2016-10-16T04:03:56.820Z,0
2016-10-16T04:05:09.814Z,0
2016-10-16T04:06:23.248Z,0
2016-10-16T04:07:36.393Z,0
2016-10-16T04:08:50.038Z,0
2016-10-16T04:10:02.995Z,0
2016-10-16T04:11:15.499Z,0
2016-10-16T04:12:28.456Z,0
2016-10-16T04:13:41.424Z,0
2016-10-16T04:14:54.915Z,0
2016-10-16T04:16:07.586Z,0
2016-10-16T04:17:19.464Z,0
2016-10-16T04:18:32.103Z,0
2016-10-16T04:19:45.589Z,0
2016-10-16T04:20:58.733Z,0
2016-10-16T04:22:12.193Z,0
2016-10-16T04:23:25.315Z,0
2016-10-16T04:24:38.791Z,0
2016-10-16T04:25:51.753Z,0
2016-10-16T04:27:05.215Z,0
2016-10-16T04:28:18.112Z,0
2016-10-16T04:29:31.709Z,0
2016-10-16T04:30:45.185Z,0
2016-10-16T04:31:58.160Z,0
2016-10-16T04:33:11.841Z,0
2016-10-16T04:34:23.703Z,0
2016-10-16T04:35:36.621Z,0
2016-10-16T04:36:49.693Z,0
2016-10-16T04:38:02.658Z,0
2016-10-16T04:39:15.133Z,0
2016-10-16T04:40:28.737Z,0
2016-10-16T04:41:41.791Z,0
2016-10-16T04:42:54.166Z,0
2016-10-16T04:44:07.268Z,0
2016-10-16T04:45:20.399Z,0
2016-10-16T04:46:32.795Z,0
2016-10-16T04:47:45.687Z,0
2016-10-16T04:48:58.328Z,0
2016-10-16T04:50:10.282Z,0
2016-10-16T04:51:22.862Z,0
2016-10-16T04:52:36.362Z,0
2016-10-16T04:53:48.303Z,0
2016-10-16T04:55:01.840Z,0
2016-10-16T04:56:14.793Z,0
2016-10-16T04:57:27.227Z,0
2016-10-16T04:58:40.701Z,0
2016-10-16T04:59:53.618Z,0
2016-10-16T05:01:07.136Z,0
2016-10-16T05:02:20.781Z,0
2016-10-16T05:03:33.763Z,0
2016-10-16T05:04:46.714Z,0
2016-10-16T05:06:00.201Z,0
2016-10-16T05:07:12.816Z,0
2016-10-16T05:08:26.286Z,0
2016-10-16T05:09:39.788Z,0
2016-10-16T05:10:53.228Z,0
2016-10-16T05:12:06.237Z,0
2016-10-16T05:13:19.830Z,0
2016-10-16T05:14:33.286Z,0
2016-10-16T05:15:46.251Z,0
2016-10-16T05:16:59.180Z,0
2016-10-16T05:18:12.789Z,0
2016-10-16T05:19:26.275Z,0
2016-10-16T05:20:39.756Z,0
2016-10-16T05:21:52.727Z,0
2016-10-16T05:23:05.887Z,0
2016-10-16T05:24:19.214Z,0
2016-10-16T05:25:32.654Z,0
2016-10-16T05:26:45.610Z,0
2016-10-16T05:27:58.661Z,0
2016-10-16T05:29:11.752Z,0
2016-10-16T05:30:25.230Z,0
2016-10-16T05:31:38.209Z,0
2016-10-16T05:32:51.160Z,0
2016-10-16T05:34:04.075Z,0
2016-10-16T05:35:17.190Z,0
2016-10-16T05:36:30.688Z,0
2016-10-16T05:37:42.560Z,0
2016-10-16T05:38:55.025Z,0
2016-10-16T05:40:07.417Z,0
2016-10-16T05:41:19.846Z,0
2016-10-16T05:42:33.289Z,0
2016-10-16T05:43:46.801Z,0
2016-10-16T05:45:00.353Z,0
2016-10-16T05:46:13.990Z,0
2016-10-16T05:47:26.958Z,0
2016-10-16T05:48:39.922Z,0
2016-10-16T05:49:53.526Z,0
2016-10-16T05:51:06.183Z,0
2016-10-16T05:52:19.229Z,0
2016-10-16T05:53:32.719Z,0
2016-10-16T05:54:46.300Z,0
2016-10-16T05:55:58.737Z,0
2016-10-16T05:57:11.335Z,0
2016-10-16T05:58:24.359Z,0
2016-10-16T05:59:37.298Z,0
2016-10-16T06:00:49.764Z,0
2016-10-16T06:02:02.427Z,0
2016-10-16T06:03:16.027Z,0
2016-10-16T06:04:29.009Z,0
2016-10-16T06:05:42.670Z,0
2016-10-16T06:06:55.141Z,0
2016-10-16T06:08:08.871Z,0
2016-10-16T06:09:22.413Z,0
2016-10-16T06:10:35.501Z,0
2016-10-16T06:11:48.488Z,0
2016-10-16T06:13:01.569Z,0
2016-10-16T06:14:15.102Z,0
2016-10-16T06:15:28.094Z,0
2016-10-16T06:16:41.240Z,0
2016-10-16T06:17:53.690Z,0
2016-10-16T06:19:06.783Z,0
2016-10-16T06:20:19.793Z,0
2016-10-16T06:21:32.751Z,0
2016-10-16T06:22:46.329Z,0
2016-10-16T06:23:59.454Z,0
2016-10-16T06:25:12.935Z,0
2016-10-16T06:26:25.868Z,0
2016-10-16T06:27:38.282Z,0
2016-10-16T06:28:50.751Z,0
2016-10-16T06:30:03.904Z,0
2016-10-16T06:31:17.140Z,0
2016-10-16T06:32:30.091Z,0
2016-10-16T06:33:42.470Z,0
2016-10-16T06:34:55.389Z,0
2016-10-16T06:36:08.859Z,0
2016-10-16T06:37:21.985Z,0
2016-10-16T06:38:34.457Z,0
2016-10-16T06:39:47.601Z,0
2016-10-16T06:41:00.685Z,0
2016-10-16T06:42:13.780Z,0
2016-10-16T06:43:26.237Z,0
2016-10-16T06:44:39.169Z,0
2016-10-16T06:45:51.581Z,0
2016-10-16T06:47:04.499Z,0
2016-10-16T06:48:17.468Z,0
2016-10-16T06:49:30.441Z,0
2016-10-16T06:50:42.897Z,0
2016-10-16T06:51:55.926Z,0
2016-10-16T06:53:08.858Z,0
2016-10-16T06:54:22.276Z,0
2016-10-16T06:55:34.723Z,0
2016-10-16T06:56:48.340Z,0
2016-10-16T06:58:01.811Z,0
2016-10-16T06:59:14.754Z,0
2016-10-16T07:00:27.732Z,0
2016-10-16T07:01:40.191Z,0
2016-10-16T07:02:53.849Z,0
2016-10-16T07:04:07.364Z,0
2016-10-16T07:05:19.785Z,0
2016-10-16T07:06:32.303Z,0
2016-10-16T07:07:46.009Z,0
2016-10-16T07:08:59.529Z,0
2016-10-16T07:10:12.579Z,0
2016-10-16T07:11:25.009Z,0
2016-10-16T07:12:37.515Z,0
2016-10-16T07:13:50.253Z,0
2016-10-16T07:15:02.705Z,0
2016-10-16T07:16:15.575Z,0
2016-10-16T07:17:27.991Z,0
2016-10-16T07:18:40.544Z,0
2016-10-16T07:19:53.043Z,0
2016-10-16T07:21:05.981Z,0
2016-10-16T07:22:18.452Z,0
2016-10-16T07:23:31.395Z,0
2016-10-16T07:24:45.056Z,0
2016-10-16T07:25:57.936Z,0
2016-10-16T07:27:10.928Z,0
2016-10-16T07:28:24.359Z,0
2016-10-16T07:29:37.534Z,0
2016-10-16T07:30:51.136Z,0
2016-10-16T07:32:04.592Z,0
2016-10-16T07:33:17.051Z,0
2016-10-16T07:34:29.536Z,0
2016-10-16T07:35:42.616Z,0
2016-10-16T07:36:55.076Z,0
2016-10-16T07:38:07.520Z,0
2016-10-16T07:39:20.436Z,0
2016-10-16T07:40:33.394Z,0
2016-10-16T07:41:46.374Z,0
2016-10-16T07:42:57.734Z,0
2016-10-16T07:44:10.711Z,0
2016-10-16T07:45:23.733Z,0
2016-10-16T07:46:36.848Z,0
2016-10-16T07:47:49.855Z,0
2016-10-16T07:49:02.865Z,0
2016-10-16T07:50:15.854Z,0
2016-10-16T07:51:29.520Z,0
2016-10-16T07:52:41.968Z,0
2016-10-16T07:53:54.350Z,0
2016-10-16T07:55:07.354Z,0
2016-10-16T07:56:20.773Z,0
2016-10-16T07:57:34.352Z,0
2016-10-16T07:58:47.329Z,0
2016-10-16T07:59:59.797Z,0
2016-10-16T08:01:12.203Z,0
2016-10-16T08:02:24.637Z,0
2016-10-16T08:03:37.558Z,0
2016-10-16T08:04:50.578Z,0
2016-10-16T08:06:03.055Z,0
2016-10-16T08:07:16.047Z,0
2016-10-16T08:08:29.239Z,0
2016-10-16T08:09:42.189Z,0
2016-10-16T08:10:55.172Z,0
2016-10-16T08:12:07.664Z,0
2016-10-16T08:13:20.045Z,0
2016-10-16T08:14:33.491Z,0
2016-10-16T08:15:45.427Z,0
2016-10-16T08:16:58.924Z,0
2016-10-16T08:18:11.340Z,0
2016-10-16T08:19:24.933Z,0
2016-10-16T08:20:38.378Z,0
2016-10-16T08:21:51.848Z,0
2016-10-16T08:23:04.292Z,0
2016-10-16T08:24:17.950Z,0
2016-10-16T08:25:29.800Z,0
2016-10-16T08:26:42.779Z,0
2016-10-16T08:27:56.263Z,0
2016-10-16T08:29:08.661Z,0
2016-10-16T08:30:22.318Z,0
2016-10-16T08:31:35.857Z,0
2016-10-16T08:32:48.324Z,0
2016-10-16T08:34:01.219Z,0
2016-10-16T08:35:14.326Z,0
2016-10-16T08:36:27.751Z,0
2016-10-16T08:37:40.689Z,0
2016-10-16T08:38:54.183Z,0
2016-10-16T08:40:07.184Z,0
2016-10-16T08:41:19.727Z,0
2016-10-16T08:42:32.676Z,5
2016-10-16T08:43:45.684Z,5
2016-10-16T08:44:58.104Z,5
2016-10-16T08:46:11.014Z,5
2016-10-16T08:47:23.939Z,5
2016-10-16T08:48:37.396Z,5
2016-10-16T08:49:50.381Z,5
2016-10-16T08:51:03.330Z,5
2016-10-16T08:52:16.439Z,10
2016-10-16T08:53:29.443Z,10
2016-10-16T08:54:42.917Z,10
2016-10-16T08:55:56.348Z,10
2016-10-16T08:57:08.867Z,10
2016-10-16T08:58:21.299Z,10
2016-10-16T08:59:34.320Z,10
2016-10-16T09:00:47.931Z,10
2016-10-16T09:02:00.885Z,15
2016-10-16T09:03:14.258Z,15
2016-10-16T09:04:27.232Z,15
2016-10-16T09:05:40.666Z,15
2016-10-16T09:06:54.232Z,15
2016-10-16T09:08:06.649Z,15
2016-10-16T09:09:19.658Z,15
2016-10-16T09:10:33.093Z,20
2016-10-16T09:11:46.100Z,20
2016-10-16T09:12:57.991Z,20
2016-10-16T09:14:11.120Z,20
2016-10-16T09:15:23.608Z,20
2016-10-16T09:16:36.503Z,25
2016-10-16T09:17:48.939Z,25
2016-10-16T09:19:02.382Z,25
2016-10-16T09:20:15.488Z,25
2016-10-16T09:21:29.016Z,30
2016-10-16T09:22:41.504Z,30
2016-10-16T09:23:55.033Z,30
2016-10-16T09:25:08.607Z,30
2016-10-16T09:26:22.038Z,30
2016-10-16T09:27:34.480Z,35
2016-10-16T09:28:46.858Z,35
2016-10-16T09:29:59.652Z,35
2016-10-16T09:31:13.097Z,35
2016-10-16T09:32:26.039Z,35
2016-10-16T09:33:38.965Z,35
2016-10-16T09:34:51.999Z,35
2016-10-16T09:36:04.536Z,40
2016-10-16T09:37:16.958Z,40
2016-10-16T09:38:29.406Z,40
2016-10-16T09:39:41.891Z,40
2016-10-16T09:40:55.599Z,40
2016-10-16T09:42:08.546Z,40
2016-10-16T09:43:22.092Z,40
2016-10-16T09:44:35.035Z,40
2016-10-16T09:45:48.549Z,40
2016-10-16T09:47:01.603Z,45
2016-10-16T09:48:14.550Z,45
2016-10-16T09:49:27.101Z,45
2016-10-16T09:50:39.029Z,45
2016-10-16T09:51:51.068Z,45
2016-10-16T09:53:03.958Z,45
2016-10-16T09:54:16.903Z,45
2016-10-16T09:55:29.818Z,45
2016-10-16T09:56:42.325Z,45
2016-10-16T09:57:55.977Z,45
2016-10-16T09:59:09.467Z,45
2016-10-16T10:00:22.914Z,45
2016-10-16T10:01:35.368Z,45
2016-10-16T10:02:48.976Z,45
2016-10-16T10:04:02.410Z,45
2016-10-16T10:05:14.848Z,45
2016-10-16T10:06:27.298Z,45
2016-10-16T10:07:40.798Z,50
2016-10-16T10:08:54.344Z,50
2016-10-16T10:10:06.755Z,50
2016-10-16T10:11:19.248Z,50
2016-10-16T10:12:31.135Z,50
2016-10-16T10:13:44.256Z,50
2016-10-16T10:14:57.237Z,50
2016-10-16T10:16:10.166Z,50
2016-10-16T10:17:23.658Z,50
2016-10-16T10:18:37.108Z,50
2016-10-16T10:19:50.143Z,50
2016-10-16T10:21:02.126Z,50
2016-10-16T10:22:15.117Z,50
2016-10-16T10:23:28.597Z,50
2016-10-16T10:24:41.579Z,50
2016-10-16T10:25:55.071Z,55
2016-10-16T10:27:08.027Z,55
2016-10-16T10:28:20.955Z,55
2016-10-16T10:29:33.920Z,55
2016-10-16T10:30:47.537Z,55
2016-10-16T10:32:00.698Z,55
2016-10-16T10:33:13.649Z,55
2016-10-16T10:34:27.169Z,55
2016-10-16T10:35:40.281Z,55
2016-10-16T10:36:53.745Z,55
2016-10-16T10:38:06.686Z,55
2016-10-16T10:39:19.788Z,55
2016-10-16T10:40:32.762Z,55
2016-10-16T10:41:45.345Z,55
2016-10-16T10:42:58.331Z,55
2016-10-16T10:44:11.785Z,55
2016-10-16T10:45:25.313Z,55
2016-10-16T10:46:38.407Z,55
2016-10-16T10:47:51.937Z,55
2016-10-16T10:49:05.385Z,55
2016-10-16T10:50:17.250Z,55
2016-10-16T10:51:28.667Z,55
2016-10-16T10:52:40.667Z,60
2016-10-16T10:53:53.638Z,60
2016-10-16T10:55:06.588Z,60
2016-10-16T10:56:19.983Z,60
2016-10-16T10:57:33.410Z,60
2016-10-16T10:58:47.101Z,60
2016-10-16T10:59:58.000Z,60
2016-10-16T11:01:13.048Z,60
2016-10-16T11:02:26.042Z,60
2016-10-16T11:03:39.234Z,60
2016-10-16T11:04:52.194Z,60
2016-10-16T11:06:04.697Z,65
2016-10-16T11:07:17.646Z,65
2016-10-16T11:08:31.086Z,65
2016-10-16T11:09:42.993Z,65
2016-10-16T11:10:56.463Z,65
2016-10-16T11:12:09.894Z,65
2016-10-16T11:13:22.889Z,70
2016-10-16T11:14:35.953Z,70
2016-10-16T11:15:48.388Z,70
2016-10-16T11:17:00.854Z,70
2016-10-16T11:18:13.886Z,70
2016-10-16T11:19:27.402Z,75
2016-10-16T11:20:41.076Z,75
2016-10-16T11:21:54.038Z,75
2016-10-16T11:23:07.530Z,75
2016-10-16T11:24:21.114Z,75
2016-10-16T11:25:34.182Z,75
2016-10-16T11:26:47.658Z,75
2016-10-16T11:28:01.134Z,75
2016-10-16T11:29:14.681Z,75
2016-10-16T11:30:27.613Z,75
2016-10-16T11:31:40.578Z,75
2016-10-16T11:32:53.013Z,75
2016-10-16T11:34:06.531Z,80
2016-10-16T11:35:20.069Z,80
2016-10-16T11:36:33.691Z,80
2016-10-16T11:37:47.131Z,80
2016-10-16T11:39:00.056Z,80
2016-10-16T11:40:13.498Z,80
2016-10-16T11:41:27.020Z,80
2016-10-16T11:42:40.494Z,80
2016-10-16T11:43:53.951Z,85
2016-10-16T11:45:07.507Z,85
2016-10-16T11:46:20.964Z,85
2016-10-16T11:47:33.388Z,85
2016-10-16T11:48:46.847Z,85
2016-10-16T11:49:58.841Z,90
2016-10-16T11:51:11.853Z,85
2016-10-16T11:52:24.912Z,90
2016-10-16T11:53:38.284Z,90
2016-10-16T11:54:50.746Z,90
2016-10-16T11:56:02.699Z,90
2016-10-16T11:57:15.193Z,90
2016-10-16T11:58:28.208Z,95
2016-10-16T11:59:40.145Z,95
2016-10-16T12:00:52.604Z,95
2016-10-16T12:02:06.121Z,95
2016-10-16T12:03:18.611Z,95
2016-10-16T12:04:31.071Z,100
2016-10-16T12:05:44.521Z,100
2016-10-16T12:06:57.977Z,100
2016-10-16T12:08:10.946Z,105
2016-10-16T12:09:24.529Z,105
2016-10-16T12:10:37.010Z,105
2016-10-16T12:11:49.957Z,110
2016-10-16T12:13:03.408Z,110
2016-10-16T12:14:16.977Z,110
2016-10-16T12:15:29.951Z,115
2016-10-16T12:16:42.904Z,115
2016-10-16T12:17:56.361Z,115
2016-10-16T12:19:09.883Z,115
2016-10-16T12:20:22.834Z,115
2016-10-16T12:21:35.308Z,120
2016-10-16T12:22:48.214Z,125
2016-10-16T12:24:01.714Z,130
2016-10-16T12:25:14.820Z,130
2016-10-16T12:26:27.752Z,135
2016-10-16T12:27:41.215Z,135
2016-10-16T12:28:54.696Z,135
2016-10-16T12:30:08.301Z,135
2016-10-16T12:31:21.360Z,140
2016-10-16T12:32:33.271Z,145
2016-10-16T12:33:45.685Z,135
2016-10-16T12:34:58.628Z,140
2016-10-16T12:36:11.684Z,145
2016-10-16T12:37:24.998Z,150
2016-10-16T12:38:37.985Z,150
2016-10-16T12:39:51.537Z,145
2016-10-16T12:41:03.968Z,155
2016-10-16T12:42:16.392Z,160
2016-10-16T12:43:29.913Z,160
2016-10-16T12:44:42.337Z,160
2016-10-16T12:45:55.881Z,155
2016-10-16T12:47:09.576Z,155
2016-10-16T12:48:23.294Z,165
2016-10-16T12:49:36.307Z,165
2016-10-16T12:50:48.710Z,165
2016-10-16T12:52:01.175Z,165
2016-10-16T12:53:14.057Z,165
2016-10-16T12:54:27.557Z,165
2016-10-16T12:55:41.029Z,175
2016-10-16T12:56:54.442Z,180
2016-10-16T12:58:08.078Z,180
2016-10-16T12:59:20.994Z,185
2016-10-16T13:00:34.000Z,185
2016-10-16T13:01:46.578Z,185
2016-10-16T13:02:59.560Z,175
2016-10-16T13:04:12.531Z,170
2016-10-16T13:05:25.444Z,165
2016-10-16T13:06:37.840Z,175
2016-10-16T13:07:51.332Z,190
2016-10-16T13:09:04.364Z,205
2016-10-16T13:10:18.140Z,210
2016-10-16T13:11:31.119Z,215
2016-10-16T13:12:43.687Z,215
2016-10-16T13:13:56.822Z,220
2016-10-16T13:15:10.534Z,225
2016-10-16T13:16:22.664Z,230
2016-10-16T13:17:36.185Z,235
2016-10-16T13:18:49.731Z,230
2016-10-16T13:20:02.763Z,220
2016-10-16T13:21:16.224Z,210
2016-10-16T13:22:29.729Z,210
2016-10-16T13:23:42.675Z,200
2016-10-16T13:24:55.281Z,200
2016-10-16T13:26:07.191Z,185
2016-10-16T13:27:19.637Z,175
2016-10-16T13:28:32.047Z,195
2016-10-16T13:29:45.006Z,200
2016-10-16T13:30:58.096Z,205
2016-10-16T13:32:11.629Z,205
2016-10-16T13:33:25.161Z,210
2016-10-16T13:34:38.097Z,210
2016-10-16T13:35:51.184Z,210
2016-10-16T13:37:04.846Z,210
2016-10-16T13:38:18.296Z,210
2016-10-16T13:39:30.783Z,210
2016-10-16T13:40:44.269Z,210
2016-10-16T13:41:56.815Z,210
2016-10-16T13:43:10.366Z,205
2016-10-16T13:44:22.849Z,210
2016-10-16T13:45:35.841Z,210
2016-10-16T13:46:49.386Z,210
2016-10-16T13:48:02.361Z,210
2016-10-16T13:49:14.303Z,210
2016-10-16T13:50:27.855Z,210
2016-10-16T13:51:41.292Z,210
2016-10-16T13:52:53.803Z,210
2016-10-16T13:54:06.262Z,210
2016-10-16T13:55:18.709Z,210
2016-10-16T13:56:32.214Z,210
2016-10-16T13:57:44.300Z,210
2016-10-16T13:58:57.859Z,210
2016-10-16T14:00:11.349Z,210
2016-10-16T14:01:24.874Z,210
2016-10-16T14:02:37.831Z,210
2016-10-16T14:03:50.446Z,210
2016-10-16T14:05:03.497Z,210
2016-10-16T14:06:16.598Z,210
2016-10-16T14:07:29.107Z,210
2016-10-16T14:08:41.174Z,210
2016-10-16T14:09:54.143Z,215
2016-10-16T14:11:06.630Z,220
2016-10-16T14:12:20.325Z,225
2016-10-16T14:13:33.230Z,225
2016-10-16T14:14:46.311Z,235
2016-10-16T14:15:58.765Z,250
2016-10-16T14:17:11.445Z,270
2016-10-16T14:18:23.892Z,295
2016-10-16T14:19:36.133Z,345
2016-10-16T14:20:49.092Z,370
2016-10-16T14:22:02.081Z,350
2016-10-16T14:23:15.107Z,360
2016-10-16T14:24:28.629Z,390
2016-10-16T14:25:41.220Z,345
2016-10-16T14:26:54.743Z,380
2016-10-16T14:28:07.207Z,410
2016-10-16T14:29:20.328Z,430
2016-10-16T14:30:33.334Z,495
2016-10-16T14:31:46.298Z,530
2016-10-16T14:32:58.700Z,540
2016-10-16T14:34:12.210Z,575
2016-10-16T14:35:25.281Z,490
2016-10-16T14:36:37.314Z,500
2016-10-16T14:37:50.270Z,495
2016-10-16T14:39:03.238Z,510
2016-10-16T14:40:15.709Z,555
2016-10-16T14:41:28.687Z,550
2016-10-16T14:42:42.487Z,545
2016-10-16T14:43:54.941Z,505
2016-10-16T14:45:07.384Z,515
2016-10-16T14:46:19.858Z,580
2016-10-16T14:47:33.588Z,600
2016-10-16T14:48:46.062Z,610
2016-10-16T14:49:59.011Z,605
2016-10-16T14:51:12.538Z,595
2016-10-16T14:52:25.677Z,610
2016-10-16T14:53:38.631Z,605
2016-10-16T14:54:50.039Z,610
2016-10-16T14:56:03.582Z,590
2016-10-16T14:57:16.516Z,520
2016-10-16T14:58:29.601Z,445
2016-10-16T14:59:43.092Z,390
2016-10-16T15:00:55.509Z,430
2016-10-16T15:02:07.924Z,405
2016-10-16T15:03:20.311Z,415
2016-10-16T15:04:32.760Z,425
2016-10-16T15:05:46.296Z,390
2016-10-16T15:06:59.338Z,370
2016-10-16T15:08:12.308Z,430
2016-10-16T15:09:24.276Z,470
2016-10-16T15:10:37.265Z,495
2016-10-16T15:11:50.247Z,510
2016-10-16T15:13:02.740Z,530
2016-10-16T15:14:15.195Z,560
2016-10-16T15:15:28.130Z,560
2016-10-16T15:16:41.578Z,575
2016-10-16T15:17:53.977Z,585
2016-10-16T15:19:06.395Z,570
2016-10-16T15:20:19.608Z,505
2016-10-16T15:21:32.570Z,540
2016-10-16T15:22:45.528Z,540
2016-10-16T15:23:59.068Z,495
2016-10-16T15:25:11.477Z,485
2016-10-16T15:26:25.042Z,465
2016-10-16T15:27:37.607Z,430
2016-10-16T15:28:50.624Z,435
2016-10-16T15:30:03.603Z,435
2016-10-16T15:31:17.222Z,425
2016-10-16T15:32:30.717Z,395
2016-10-16T15:33:43.704Z,430
2016-10-16T15:34:57.283Z,490
2016-10-16T15:36:10.781Z,465
2016-10-16T15:37:24.310Z,495
2016-10-16T15:38:37.820Z,530
2016-10-16T15:39:51.354Z,535
2016-10-16T15:41:04.328Z,545
2016-10-16T15:42:17.419Z,370
2016-10-16T15:43:30.895Z,225
2016-10-16T15:44:44.433Z,230
2016-10-16T15:45:56.902Z,430
2016-10-16T15:47:09.390Z,400
2016-10-16T15:48:22.406Z,290
2016-10-16T15:49:35.890Z,235
2016-10-16T15:50:49.447Z,250
2016-10-16T15:52:02.895Z,260
2016-10-16T15:53:15.979Z,295
2016-10-16T15:54:29.453Z,435
2016-10-16T15:55:42.895Z,510
2016-10-16T15:56:55.842Z,515
2016-10-16T15:58:09.147Z,520
2016-10-16T15:59:21.605Z,465
2016-10-16T16:00:33.594Z,430
2016-10-16T16:01:46.733Z,415
2016-10-16T16:03:00.319Z,410
2016-10-16T16:04:13.992Z,445
2016-10-16T16:05:27.541Z,465
2016-10-16T16:06:41.099Z,480
2016-10-16T16:07:54.598Z,475
2016-10-16T16:09:07.577Z,435
2016-10-16T16:10:21.118Z,450
2016-10-16T16:11:34.631Z,450
2016-10-16T16:12:48.150Z,465
2016-10-16T16:14:00.593Z,425
2016-10-16T16:15:13.124Z,400
2016-10-16T16:16:26.580Z,360
2016-10-16T16:17:40.091Z,275
2016-10-16T16:18:53.208Z,335
2016-10-16T16:20:06.358Z,315
2016-10-16T16:21:19.874Z,300
2016-10-16T16:22:32.839Z,255
2016-10-16T16:23:45.769Z,270
2016-10-16T16:24:58.774Z,345
2016-10-16T16:26:11.871Z,415
2016-10-16T16:27:25.456Z,490
2016-10-16T16:28:37.918Z,425
2016-10-16T16:29:49.861Z,410
2016-10-16T16:31:02.268Z,395
2016-10-16T16:32:15.253Z,225
2016-10-16T16:33:28.228Z,285
2016-10-16T16:34:40.214Z,260
2016-10-16T16:35:53.206Z,320
2016-10-16T16:37:06.915Z,405
2016-10-16T16:38:18.915Z,425
2016-10-16T16:39:31.331Z,450
2016-10-16T16:40:43.784Z,485
2016-10-16T16:41:55.876Z,480
2016-10-16T16:43:08.843Z,470
2016-10-16T16:44:22.284Z,470
2016-10-16T16:45:35.876Z,470
2016-10-16T16:46:48.822Z,460
2016-10-16T16:48:02.408Z,475
2016-10-16T16:49:15.425Z,480
2016-10-16T16:50:27.880Z,480
2016-10-16T16:51:41.355Z,480
2016-10-16T16:52:54.468Z,505
2016-10-16T16:54:07.997Z,500
2016-10-16T16:55:21.527Z,490
2016-10-16T16:56:34.531Z,480
2016-10-16T16:57:45.912Z,475
2016-10-16T16:58:59.553Z,460
2016-10-16T17:00:12.962Z,440
2016-10-16T17:01:25.370Z,435
2016-10-16T17:02:38.324Z,410
2016-10-16T17:03:50.362Z,400
2016-10-16T17:05:02.731Z,400
2016-10-16T17:06:16.236Z,355
2016-10-16T17:07:28.754Z,390
2016-10-16T17:08:41.199Z,350
2016-10-16T17:09:53.170Z,320
2016-10-16T17:11:06.667Z,310
2016-10-16T17:12:20.214Z,300
2016-10-16T17:13:33.782Z,295
2016-10-16T17:14:46.336Z,365
2016-10-16T17:15:59.784Z,340
2016-10-16T17:17:12.782Z,230
2016-10-16T17:18:24.680Z,210
2016-10-16T17:19:37.667Z,215
2016-10-16T17:20:50.230Z,345
2016-10-16T17:22:02.683Z,295
2016-10-16T17:23:15.598Z,325
2016-10-16T17:24:28.574Z,305
2016-10-16T17:25:41.741Z,310
2016-10-16T17:26:54.089Z,330
2016-10-16T17:28:07.559Z,320
2016-10-16T17:29:20.050Z,340